sensor_id;sensor_type;location;lat;lon;timestamp;temperature;humidity
39655;DHT22;25336;59.944;11.010;2023-07-13T00:01:25;18.90;72.40
39655;DHT22;25336;59.944;11.010;2023-07-13T00:03:52;19.00;72.40
39655;DHT22;25336;59.944;11.010;2023-07-13T00:06:17;18.90;72.30
39655;DHT22;25336;59.944;11.010;2023-07-13T00:08:45;18.90;72.30
39655;DHT22;25336;59.944;11.010;2023-07-13T00:11:11;18.90;72.20
39655;DHT22;25336;59.944;11.010;2023-07-13T00:13:36;18.90;72.10
39655;DHT22;25336;59.944;11.010;2023-07-13T00:16:05;18.90;72.10
39655;DHT22;25336;59.944;11.010;2023-07-13T00:18:30;18.40;71.80
39655;DHT22;25336;59.944;11.010;2023-07-13T00:20:57;18.90;72.10
39655;DHT22;25336;59.944;11.010;2023-07-13T00:23:36;18.80;72.00
39655;DHT22;25336;59.944;11.010;2023-07-13T00:26:03;18.90;72.00
39655;DHT22;25336;59.944;11.010;2023-07-13T00:28:29;18.80;72.00
39655;DHT22;25336;59.944;11.010;2023-07-13T00:30:55;18.80;72.00
39655;DHT22;25336;59.944;11.010;2023-07-13T00:33:21;18.80;72.10
39655;DHT22;25336;59.944;11.010;2023-07-13T00:35:49;18.80;72.00
39655;DHT22;25336;59.944;11.010;2023-07-13T00:38:15;18.80;72.10
39655;DHT22;25336;59.944;11.010;2023-07-13T00:40:40;18.80;72.10
39655;DHT22;25336;59.944;11.010;2023-07-13T00:43:15;18.80;72.00
39655;DHT22;25336;59.944;11.010;2023-07-13T00:48:15;18.80;72.20
39655;DHT22;25336;59.944;11.010;2023-07-13T00:50:44;18.70;72.00
39655;DHT22;25336;59.944;11.010;2023-07-13T00:53:10;18.70;71.90
39655;DHT22;25336;59.944;11.010;2023-07-13T00:55:37;18.70;71.80
39655;DHT22;25336;59.944;11.010;2023-07-13T00:58:04;18.60;71.70
39655;DHT22;25336;59.944;11.010;2023-07-13T01:00:34;18.60;71.70
39655;DHT22;25336;59.944;11.010;2023-07-13T01:03:01;18.60;71.80
39655;DHT22;25336;59.944;11.010;2023-07-13T01:05:30;18.50;71.90
39655;DHT22;25336;59.944;11.010;2023-07-13T01:07:57;18.50;72.10
39655;DHT22;25336;59.944;11.010;2023-07-13T01:10:24;18.50;72.20
39655;DHT22;25336;59.944;11.010;2023-07-13T01:12:51;18.50;72.30
39655;DHT22;25336;59.944;11.010;2023-07-13T01:15:53;18.40;72.30
39655;DHT22;25336;59.944;11.010;2023-07-13T01:18:23;18.40;72.90
39655;DHT22;25336;59.944;11.010;2023-07-13T01:20:57;18.40;73.30
39655;DHT22;25336;59.944;11.010;2023-07-13T01:23:25;18.40;72.80
39655;DHT22;25336;59.944;11.010;2023-07-13T01:25:52;18.40;72.70
39655;DHT22;25336;59.944;11.010;2023-07-13T01:28:18;18.40;72.70
39655;DHT22;25336;59.944;11.010;2023-07-13T01:30:45;18.30;72.70
39655;DHT22;25336;59.944;11.010;2023-07-13T01:33:13;18.30;72.70
39655;DHT22;25336;59.944;11.010;2023-07-13T01:35:39;18.30;72.70
39655;DHT22;25336;59.944;11.010;2023-07-13T01:38:05;18.30;72.80
39655;DHT22;25336;59.944;11.010;2023-07-13T01:40:31;18.30;72.80
39655;DHT22;25336;59.944;11.010;2023-07-13T01:42:58;18.20;72.80
39655;DHT22;25336;59.944;11.010;2023-07-13T01:45:24;18.20;72.90
39655;DHT22;25336;59.944;11.010;2023-07-13T01:47:50;18.20;72.90
39655;DHT22;25336;59.944;11.010;2023-07-13T01:50:15;18.20;73.00
39655;DHT22;25336;59.944;11.010;2023-07-13T01:52:41;18.20;73.00
39655;DHT22;25336;59.944;11.010;2023-07-13T01:55:07;18.20;73.10
39655;DHT22;25336;59.944;11.010;2023-07-13T01:57:33;18.20;73.20
39655;DHT22;25336;59.944;11.010;2023-07-13T01:59:59;18.10;73.30
39655;DHT22;25336;59.944;11.010;2023-07-13T02:02:24;18.10;73.40
39655;DHT22;25336;59.944;11.010;2023-07-13T02:04:50;18.10;73.50
39655;DHT22;25336;59.944;11.010;2023-07-13T02:07:16;18.10;73.70
39655;DHT22;25336;59.944;11.010;2023-07-13T02:09:41;18.10;73.90
39655;DHT22;25336;59.944;11.010;2023-07-13T02:12:08;18.10;74.00
39655;DHT22;25336;59.944;11.010;2023-07-13T02:14:33;18.10;74.20
39655;DHT22;25336;59.944;11.010;2023-07-13T02:16:59;18.10;74.30
39655;DHT22;25336;59.944;11.010;2023-07-13T02:19:25;18.10;74.20
39655;DHT22;25336;59.944;11.010;2023-07-13T02:21:51;18.10;74.10
39655;DHT22;25336;59.944;11.010;2023-07-13T02:24:16;18.20;74.20
39655;DHT22;25336;59.944;11.010;2023-07-13T02:26:44;18.20;74.20
39655;DHT22;25336;59.944;11.010;2023-07-13T02:29:10;18.20;74.30
39655;DHT22;25336;59.944;11.010;2023-07-13T02:31:36;18.20;74.20
39655;DHT22;25336;59.944;11.010;2023-07-13T02:34:02;18.20;74.30
39655;DHT22;25336;59.944;11.010;2023-07-13T02:36:30;18.20;74.20
39655;DHT22;25336;59.944;11.010;2023-07-13T02:38:57;18.20;74.20
39655;DHT22;25336;59.944;11.010;2023-07-13T02:41:23;18.30;74.30
39655;DHT22;25336;59.944;11.010;2023-07-13T02:43:51;17.80;73.90
39655;DHT22;25336;59.944;11.010;2023-07-13T02:46:17;18.30;74.20
39655;DHT22;25336;59.944;11.010;2023-07-13T02:48:45;18.30;74.10
39655;DHT22;25336;59.944;11.010;2023-07-13T02:51:10;18.30;73.90
39655;DHT22;25336;59.944;11.010;2023-07-13T02:53:37;18.30;73.80
39655;DHT22;25336;59.944;11.010;2023-07-13T02:56:03;18.30;73.80
39655;DHT22;25336;59.944;11.010;2023-07-13T02:58:29;18.30;73.70
39655;DHT22;25336;59.944;11.010;2023-07-13T03:00:55;18.30;73.60
39655;DHT22;25336;59.944;11.010;2023-07-13T03:03:21;18.30;73.60
39655;DHT22;25336;59.944;11.010;2023-07-13T03:05:47;19.00;74.00
39655;DHT22;25336;59.944;11.010;2023-07-13T03:08:15;18.20;73.70
39655;DHT22;25336;59.944;11.010;2023-07-13T03:10:41;18.30;73.90
39655;DHT22;25336;59.944;11.010;2023-07-13T03:13:07;18.30;74.00
39655;DHT22;25336;59.944;11.010;2023-07-13T03:15:32;18.20;74.00
39655;DHT22;25336;59.944;11.010;2023-07-13T03:17:58;18.30;74.10
39655;DHT22;25336;59.944;11.010;2023-07-13T03:20:24;18.30;74.20
39655;DHT22;25336;59.944;11.010;2023-07-13T03:22:49;18.30;74.20
39655;DHT22;25336;59.944;11.010;2023-07-13T03:25:15;18.30;74.20
39655;DHT22;25336;59.944;11.010;2023-07-13T03:27:41;18.30;74.20
39655;DHT22;25336;59.944;11.010;2023-07-13T03:30:07;18.30;74.20
39655;DHT22;25336;59.944;11.010;2023-07-13T03:32:33;18.40;74.20
39655;DHT22;25336;59.944;11.010;2023-07-13T03:34:58;18.40;74.10
39655;DHT22;25336;59.944;11.010;2023-07-13T03:37:24;18.40;74.00
39655;DHT22;25336;59.944;11.010;2023-07-13T03:39:50;18.40;74.00
39655;DHT22;25336;59.944;11.010;2023-07-13T03:42:16;18.40;74.00
39655;DHT22;25336;59.944;11.010;2023-07-13T03:44:42;18.40;74.00
39655;DHT22;25336;59.944;11.010;2023-07-13T03:47:11;18.50;74.10
39655;DHT22;25336;59.944;11.010;2023-07-13T03:49:37;18.50;74.10
39655;DHT22;25336;59.944;11.010;2023-07-13T03:52:03;18.50;74.00
39655;DHT22;25336;59.944;11.010;2023-07-13T03:54:29;18.50;73.90
39655;DHT22;25336;59.944;11.010;2023-07-13T03:56:55;18.50;73.90
39655;DHT22;25336;59.944;11.010;2023-07-13T03:59:21;18.50;74.00
39655;DHT22;25336;59.944;11.010;2023-07-13T04:01:47;18.50;74.70
39655;DHT22;25336;59.944;11.010;2023-07-13T04:04:12;18.60;74.00
39655;DHT22;25336;59.944;11.010;2023-07-13T04:06:38;18.60;73.90
39655;DHT22;25336;59.944;11.010;2023-07-13T04:09:04;18.60;73.80
39655;DHT22;25336;59.944;11.010;2023-07-13T04:11:34;18.60;73.70
39655;DHT22;25336;59.944;11.010;2023-07-13T04:14:01;18.70;73.70
39655;DHT22;25336;59.944;11.010;2023-07-13T04:16:28;18.70;73.70
39655;DHT22;25336;59.944;11.010;2023-07-13T04:18:54;18.70;73.40
39655;DHT22;25336;59.944;11.010;2023-07-13T04:21:25;18.80;73.30
39655;DHT22;25336;59.944;11.010;2023-07-13T04:23:51;18.70;73.20
39655;DHT22;25336;59.944;11.010;2023-07-13T04:26:17;18.80;73.20
39655;DHT22;25336;59.944;11.010;2023-07-13T04:28:42;18.80;73.20
39655;DHT22;25336;59.944;11.010;2023-07-13T04:31:08;18.80;73.00
39655;DHT22;25336;59.944;11.010;2023-07-13T04:33:34;18.80;72.90
39655;DHT22;25336;59.944;11.010;2023-07-13T04:35:59;18.80;72.80
39655;DHT22;25336;59.944;11.010;2023-07-13T04:38:28;18.90;72.70
39655;DHT22;25336;59.944;11.010;2023-07-13T04:41:05;18.90;72.50
39655;DHT22;25336;59.944;11.010;2023-07-13T04:43:31;18.90;72.50
39655;DHT22;25336;59.944;11.010;2023-07-13T04:46:02;18.20;71.90
39655;DHT22;25336;59.944;11.010;2023-07-13T04:48:28;18.90;72.40
39655;DHT22;25336;59.944;11.010;2023-07-13T04:50:55;18.90;72.30
39655;DHT22;25336;59.944;11.010;2023-07-13T04:53:21;18.90;72.20
39655;DHT22;25336;59.944;11.010;2023-07-13T04:55:47;18.90;72.30
39655;DHT22;25336;59.944;11.010;2023-07-13T04:58:12;18.90;72.20
39655;DHT22;25336;59.944;11.010;2023-07-13T05:00:39;18.90;72.20
39655;DHT22;25336;59.944;11.010;2023-07-13T05:03:05;18.90;72.30
39655;DHT22;25336;59.944;11.010;2023-07-13T05:05:31;18.90;72.30
39655;DHT22;25336;59.944;11.010;2023-07-13T05:07:57;18.90;72.20
39655;DHT22;25336;59.944;11.010;2023-07-13T05:10:23;18.90;72.10
39655;DHT22;25336;59.944;11.010;2023-07-13T05:12:49;19.00;72.00
39655;DHT22;25336;59.944;11.010;2023-07-13T05:15:15;19.00;71.90
39655;DHT22;25336;59.944;11.010;2023-07-13T05:17:41;18.90;71.60
39655;DHT22;25336;59.944;11.010;2023-07-13T05:20:08;19.00;71.60
39655;DHT22;25336;59.944;11.010;2023-07-13T05:22:34;18.20;70.90
39655;DHT22;25336;59.944;11.010;2023-07-13T05:25:01;19.00;71.40
39655;DHT22;25336;59.944;11.010;2023-07-13T05:27:27;19.00;71.30
39655;DHT22;25336;59.944;11.010;2023-07-13T05:29:53;19.00;71.30
39655;DHT22;25336;59.944;11.010;2023-07-13T05:32:19;19.00;71.30
39655;DHT22;25336;59.944;11.010;2023-07-13T05:34:44;19.00;71.60
39655;DHT22;25336;59.944;11.010;2023-07-13T05:37:10;19.10;71.20
39655;DHT22;25336;59.944;11.010;2023-07-13T05:39:36;19.10;71.20
39655;DHT22;25336;59.944;11.010;2023-07-13T05:42:02;19.10;71.10
39655;DHT22;25336;59.944;11.010;2023-07-13T05:44:28;19.10;70.60
39655;DHT22;25336;59.944;11.010;2023-07-13T05:46:53;19.20;70.50
39655;DHT22;25336;59.944;11.010;2023-07-13T05:49:21;19.20;70.40
39655;DHT22;25336;59.944;11.010;2023-07-13T05:51:47;19.20;70.20
39655;DHT22;25336;59.944;11.010;2023-07-13T05:54:12;19.20;70.00
39655;DHT22;25336;59.944;11.010;2023-07-13T05:56:38;19.20;69.80
39655;DHT22;25336;59.944;11.010;2023-07-13T05:59:04;19.20;69.70
39655;DHT22;25336;59.944;11.010;2023-07-13T06:01:30;19.90;69.90
39655;DHT22;25336;59.944;11.010;2023-07-13T06:03:56;19.10;69.30
39655;DHT22;25336;59.944;11.010;2023-07-13T06:06:22;19.10;69.20
39655;DHT22;25336;59.944;11.010;2023-07-13T06:08:48;19.10;69.10
39655;DHT22;25336;59.944;11.010;2023-07-13T06:11:16;19.10;69.20
39655;DHT22;25336;59.944;11.010;2023-07-13T06:13:43;19.00;69.00
39655;DHT22;25336;59.944;11.010;2023-07-13T06:16:09;19.10;69.10
39655;DHT22;25336;59.944;11.010;2023-07-13T06:18:36;19.00;69.00
39655;DHT22;25336;59.944;11.010;2023-07-13T06:21:11;19.10;69.10
39655;DHT22;25336;59.944;11.010;2023-07-13T06:23:37;19.00;69.10
39655;DHT22;25336;59.944;11.010;2023-07-13T06:26:04;19.00;69.20
39655;DHT22;25336;59.944;11.010;2023-07-13T06:28:30;19.00;69.20
39655;DHT22;25336;59.944;11.010;2023-07-13T06:31:00;19.00;69.10
39655;DHT22;25336;59.944;11.010;2023-07-13T06:33:26;19.00;69.20
39655;DHT22;25336;59.944;11.010;2023-07-13T06:35:52;19.00;69.10
39655;DHT22;25336;59.944;11.010;2023-07-13T06:38:20;19.00;69.10
39655;DHT22;25336;59.944;11.010;2023-07-13T06:40:46;19.00;69.20
39655;DHT22;25336;59.944;11.010;2023-07-13T06:43:12;19.00;69.30
39655;DHT22;25336;59.944;11.010;2023-07-13T06:45:43;19.00;69.40
39655;DHT22;25336;59.944;11.010;2023-07-13T06:48:11;19.00;69.20
39655;DHT22;25336;59.944;11.010;2023-07-13T06:50:37;19.00;69.30
39655;DHT22;25336;59.944;11.010;2023-07-13T06:53:02;19.10;69.50
39655;DHT22;25336;59.944;11.010;2023-07-13T06:55:28;19.00;69.50
39655;DHT22;25336;59.944;11.010;2023-07-13T06:57:54;19.10;69.50
39655;DHT22;25336;59.944;11.010;2023-07-13T07:00:19;19.10;69.30
39655;DHT22;25336;59.944;11.010;2023-07-13T07:02:46;19.20;69.30
39655;DHT22;25336;59.944;11.010;2023-07-13T07:05:11;19.20;69.20
39655;DHT22;25336;59.944;11.010;2023-07-13T07:07:37;19.20;69.10
39655;DHT22;25336;59.944;11.010;2023-07-13T07:10:03;19.30;69.10
39655;DHT22;25336;59.944;11.010;2023-07-13T07:12:29;19.30;69.00
39655;DHT22;25336;59.944;11.010;2023-07-13T07:14:55;19.40;69.30
39655;DHT22;25336;59.944;11.010;2023-07-13T07:17:20;19.40;69.30
39655;DHT22;25336;59.944;11.010;2023-07-13T07:19:46;19.50;69.20
39655;DHT22;25336;59.944;11.010;2023-07-13T07:22:12;19.60;69.30
39655;DHT22;25336;59.944;11.010;2023-07-13T07:24:38;19.60;69.00
39655;DHT22;25336;59.944;11.010;2023-07-13T07:27:04;19.00;68.10
39655;DHT22;25336;59.944;11.010;2023-07-13T07:29:29;19.70;67.90
39655;DHT22;25336;59.944;11.010;2023-07-13T07:31:55;19.80;67.70
39655;DHT22;25336;59.944;11.010;2023-07-13T07:34:21;19.80;67.70
39655;DHT22;25336;59.944;11.010;2023-07-13T07:36:46;19.80;67.50
39655;DHT22;25336;59.944;11.010;2023-07-13T07:39:12;19.80;67.40
39655;DHT22;25336;59.944;11.010;2023-07-13T07:41:38;19.90;67.70
39655;DHT22;25336;59.944;11.010;2023-07-13T07:44:04;19.90;67.60
39655;DHT22;25336;59.944;11.010;2023-07-13T07:46:30;19.90;67.30
39655;DHT22;25336;59.944;11.010;2023-07-13T07:48:56;19.90;67.00
39655;DHT22;25336;59.944;11.010;2023-07-13T07:51:22;20.00;66.90
39655;DHT22;25336;59.944;11.010;2023-07-13T07:53:48;20.00;66.70
39655;DHT22;25336;59.944;11.010;2023-07-13T07:56:14;20.10;66.80
39655;DHT22;25336;59.944;11.010;2023-07-13T07:58:42;20.10;66.90
39655;DHT22;25336;59.944;11.010;2023-07-13T08:01:07;20.20;66.80
39655;DHT22;25336;59.944;11.010;2023-07-13T08:03:33;20.20;66.80
39655;DHT22;25336;59.944;11.010;2023-07-13T08:05:59;20.30;66.70
39655;DHT22;25336;59.944;11.010;2023-07-13T08:08:25;20.40;66.40
39655;DHT22;25336;59.944;11.010;2023-07-13T08:10:51;20.50;66.10
39655;DHT22;25336;59.944;11.010;2023-07-13T08:13:17;20.50;65.90
39655;DHT22;25336;59.944;11.010;2023-07-13T08:15:43;20.60;65.40
39655;DHT22;25336;59.944;11.010;2023-07-13T08:18:08;20.70;64.90
39655;DHT22;25336;59.944;11.010;2023-07-13T08:20:40;20.70;64.50
39655;DHT22;25336;59.944;11.010;2023-07-13T08:23:06;20.10;64.10
39655;DHT22;25336;59.944;11.010;2023-07-13T08:25:33;20.80;64.40
39655;DHT22;25336;59.944;11.010;2023-07-13T08:27:58;20.90;63.90
39655;DHT22;25336;59.944;11.010;2023-07-13T08:30:24;20.90;63.80
39655;DHT22;25336;59.944;11.010;2023-07-13T08:32:49;21.00;63.50
39655;DHT22;25336;59.944;11.010;2023-07-13T08:35:15;21.00;63.30
39655;DHT22;25336;59.944;11.010;2023-07-13T08:37:42;21.10;62.80
39655;DHT22;25336;59.944;11.010;2023-07-13T08:40:11;21.10;62.60
39655;DHT22;25336;59.944;11.010;2023-07-13T08:42:58;21.10;61.90
39655;DHT22;25336;59.944;11.010;2023-07-13T08:45:32;21.10;60.70
39655;DHT22;25336;59.944;11.010;2023-07-13T08:51:24;21.10;61.60
39655;DHT22;25336;59.944;11.010;2023-07-13T08:53:39;21.10;60.40
39655;DHT22;25336;59.944;11.010;2023-07-13T08:56:17;21.10;61.00
39655;DHT22;25336;59.944;11.010;2023-07-13T08:58:44;21.10;60.90
39655;DHT22;25336;59.944;11.010;2023-07-13T09:01:31;21.10;61.30
39655;DHT22;25336;59.944;11.010;2023-07-13T09:04:21;21.10;61.00
39655;DHT22;25336;59.944;11.010;2023-07-13T09:09:26;21.00;60.40
39655;DHT22;25336;59.944;11.010;2023-07-13T09:14:51;21.00;59.90
39655;DHT22;25336;59.944;11.010;2023-07-13T09:17:27;20.90;59.90
39655;DHT22;25336;59.944;11.010;2023-07-13T09:20:04;20.90;59.70
39655;DHT22;25336;59.944;11.010;2023-07-13T09:22:36;20.90;59.90
39655;DHT22;25336;59.944;11.010;2023-07-13T09:25:30;20.80;60.40
39655;DHT22;25336;59.944;11.010;2023-07-13T09:28:02;20.80;59.80
39655;DHT22;25336;59.944;11.010;2023-07-13T09:31:04;20.80;60.20
39655;DHT22;25336;59.944;11.010;2023-07-13T09:33:31;20.70;59.60
39655;DHT22;25336;59.944;11.010;2023-07-13T09:35:58;20.60;60.10
39655;DHT22;25336;59.944;11.010;2023-07-13T09:38:29;20.60;60.40
39655;DHT22;25336;59.944;11.010;2023-07-13T09:41:22;20.60;60.50
39655;DHT22;25336;59.944;11.010;2023-07-13T09:44:11;20.60;59.90
39655;DHT22;25336;59.944;11.010;2023-07-13T09:46:45;20.60;60.60
39655;DHT22;25336;59.944;11.010;2023-07-13T09:49:12;20.60;60.80
39655;DHT22;25336;59.944;11.010;2023-07-13T09:51:40;20.70;61.30
39655;DHT22;25336;59.944;11.010;2023-07-13T09:54:09;20.70;61.30
39655;DHT22;25336;59.944;11.010;2023-07-13T09:56:42;20.80;61.30
39655;DHT22;25336;59.944;11.010;2023-07-13T09:59:20;20.80;61.30
39655;DHT22;25336;59.944;11.010;2023-07-13T10:01:46;20.90;60.20
39655;DHT22;25336;59.944;11.010;2023-07-13T10:04:17;21.00;61.10
39655;DHT22;25336;59.944;11.010;2023-07-13T10:06:44;21.10;60.60
39655;DHT22;25336;59.944;11.010;2023-07-13T10:09:14;21.10;60.50
39655;DHT22;25336;59.944;11.010;2023-07-13T10:11:40;21.20;60.10
39655;DHT22;25336;59.944;11.010;2023-07-13T10:14:18;21.30;60.10
39655;DHT22;25336;59.944;11.010;2023-07-13T10:16:46;21.40;59.30
39655;DHT22;25336;59.944;11.010;2023-07-13T10:19:19;21.50;59.60
39655;DHT22;25336;59.944;11.010;2023-07-13T10:21:58;21.60;59.80
39655;DHT22;25336;59.944;11.010;2023-07-13T10:24:30;21.70;58.70
39655;DHT22;25336;59.944;11.010;2023-07-13T10:29:37;21.90;57.80
39655;DHT22;25336;59.944;11.010;2023-07-13T10:32:09;21.90;57.80
39655;DHT22;25336;59.944;11.010;2023-07-13T10:34:37;21.90;57.10
39655;DHT22;25336;59.944;11.010;2023-07-13T10:37:03;22.00;57.40
39655;DHT22;25336;59.944;11.010;2023-07-13T10:39:30;22.10;57.20
39655;DHT22;25336;59.944;11.010;2023-07-13T10:42:02;22.10;56.50
39655;DHT22;25336;59.944;11.010;2023-07-13T10:44:30;22.20;56.40
39655;DHT22;25336;59.944;11.010;2023-07-13T10:47:05;22.30;56.60
39655;DHT22;25336;59.944;11.010;2023-07-13T10:49:33;22.40;55.60
39655;DHT22;25336;59.944;11.010;2023-07-13T10:52:00;22.50;56.20
39655;DHT22;25336;59.944;11.010;2023-07-13T10:59:42;23.00;54.90
39655;DHT22;25336;59.944;11.010;2023-07-13T11:02:21;23.10;55.80
39655;DHT22;25336;59.944;11.010;2023-07-13T11:04:48;23.30;53.80
39655;DHT22;25336;59.944;11.010;2023-07-13T11:07:28;23.50;54.40
39655;DHT22;25336;59.944;11.010;2023-07-13T11:09:56;23.70;52.70
39655;DHT22;25336;59.944;11.010;2023-07-13T11:20:10;24.30;51.70
39655;DHT22;25336;59.944;11.010;2023-07-13T11:22:52;24.30;51.10
39655;DHT22;25336;59.944;11.010;2023-07-13T11:25:33;24.40;51.20
39655;DHT22;25336;59.944;11.010;2023-07-13T11:30:49;24.60;50.20
39655;DHT22;25336;59.944;11.010;2023-07-13T11:36:17;24.70;49.20
39655;DHT22;25336;59.944;11.010;2023-07-13T11:41:35;24.80;49.30
39655;DHT22;25336;59.944;11.010;2023-07-13T11:44:24;24.90;50.60
39655;DHT22;25336;59.944;11.010;2023-07-13T11:46:53;24.90;50.20
39655;DHT22;25336;59.944;11.010;2023-07-13T11:49:21;25.10;50.00
39655;DHT22;25336;59.944;11.010;2023-07-13T11:51:47;25.10;49.30
39655;DHT22;25336;59.944;11.010;2023-07-13T11:59:50;25.30;47.10
39655;DHT22;25336;59.944;11.010;2023-07-13T12:04:53;25.30;47.00
39655;DHT22;25336;59.944;11.010;2023-07-13T12:07:19;25.30;47.30
39655;DHT22;25336;59.944;11.010;2023-07-13T12:09:45;25.20;47.70
39655;DHT22;25336;59.944;11.010;2023-07-13T12:12:17;25.20;47.20
39655;DHT22;25336;59.944;11.010;2023-07-13T12:14:44;25.10;46.20
39655;DHT22;25336;59.944;11.010;2023-07-13T12:17:18;25.10;47.50
39655;DHT22;25336;59.944;11.010;2023-07-13T12:19:44;25.00;47.00
39655;DHT22;25336;59.944;11.010;2023-07-13T12:22:13;24.90;47.30
39655;DHT22;25336;59.944;11.010;2023-07-13T12:24:41;24.90;47.00
39655;DHT22;25336;59.944;11.010;2023-07-13T12:29:56;24.80;46.50
39655;DHT22;25336;59.944;11.010;2023-07-13T12:32:24;24.80;47.60
39655;DHT22;25336;59.944;11.010;2023-07-13T12:35:16;24.80;48.00
39655;DHT22;25336;59.944;11.010;2023-07-13T12:37:43;24.80;47.80
39655;DHT22;25336;59.944;11.010;2023-07-13T12:40:17;24.80;47.80
39655;DHT22;25336;59.944;11.010;2023-07-13T12:42:49;24.80;47.60
39655;DHT22;25336;59.944;11.010;2023-07-13T12:45:25;24.80;48.00
39655;DHT22;25336;59.944;11.010;2023-07-13T12:48:03;24.90;48.30
39655;DHT22;25336;59.944;11.010;2023-07-13T12:50:42;24.60;48.50
39655;DHT22;25336;59.944;11.010;2023-07-13T12:53:14;24.90;47.60
39655;DHT22;25336;59.944;11.010;2023-07-13T12:55:49;25.00;48.10
39655;DHT22;25336;59.944;11.010;2023-07-13T12:58:26;25.10;48.20
39655;DHT22;25336;59.944;11.010;2023-07-13T13:00:54;25.10;46.70
39655;DHT22;25336;59.944;11.010;2023-07-13T13:03:26;25.10;47.80
39655;DHT22;25336;59.944;11.010;2023-07-13T13:06:20;25.10;47.50
39655;DHT22;25336;59.944;11.010;2023-07-13T13:08:47;24.70;46.10
39655;DHT22;25336;59.944;11.010;2023-07-13T13:11:17;25.10;47.10
39655;DHT22;25336;59.944;11.010;2023-07-13T13:13:43;25.00;47.00
39655;DHT22;25336;59.944;11.010;2023-07-13T13:16:16;25.00;47.00
39655;DHT22;25336;59.944;11.010;2023-07-13T13:18:43;24.90;47.60
39655;DHT22;25336;59.944;11.010;2023-07-13T13:21:10;24.90;47.90
39655;DHT22;25336;59.944;11.010;2023-07-13T13:23:36;25.00;47.80
39655;DHT22;25336;59.944;11.010;2023-07-13T13:26:02;25.00;47.80
39655;DHT22;25336;59.944;11.010;2023-07-13T13:28:29;25.00;47.80
39655;DHT22;25336;59.944;11.010;2023-07-13T13:30:54;25.00;47.60
39655;DHT22;25336;59.944;11.010;2023-07-13T13:33:21;25.10;48.10
39655;DHT22;25336;59.944;11.010;2023-07-13T13:35:47;25.10;48.30
39655;DHT22;25336;59.944;11.010;2023-07-13T13:38:15;25.10;48.50
39655;DHT22;25336;59.944;11.010;2023-07-13T13:40:42;25.20;48.10
39655;DHT22;25336;59.944;11.010;2023-07-13T13:43:15;25.20;47.50
39655;DHT22;25336;59.944;11.010;2023-07-13T13:45:42;25.20;47.40
39655;DHT22;25336;59.944;11.010;2023-07-13T13:48:35;25.10;47.20
39655;DHT22;25336;59.944;11.010;2023-07-13T13:51:00;25.10;47.20
39655;DHT22;25336;59.944;11.010;2023-07-13T13:53:26;24.90;47.30
39655;DHT22;25336;59.944;11.010;2023-07-13T13:55:52;24.80;47.80
39655;DHT22;25336;59.944;11.010;2023-07-13T13:58:19;24.60;48.20
39655;DHT22;25336;59.944;11.010;2023-07-13T14:00:48;24.40;48.90
39655;DHT22;25336;59.944;11.010;2023-07-13T14:03:19;24.30;49.70
39655;DHT22;25336;59.944;11.010;2023-07-13T14:05:46;24.10;50.20
39655;DHT22;25336;59.944;11.010;2023-07-13T14:08:18;24.00;50.70
39655;DHT22;25336;59.944;11.010;2023-07-13T14:10:50;23.80;51.20
39655;DHT22;25336;59.944;11.010;2023-07-13T14:13:26;23.60;51.80
39655;DHT22;25336;59.944;11.010;2023-07-13T14:15:53;23.40;52.40
39655;DHT22;25336;59.944;11.010;2023-07-13T14:18:19;23.30;52.80
39655;DHT22;25336;59.944;11.010;2023-07-13T14:20:46;23.10;53.20
39655;DHT22;25336;59.944;11.010;2023-07-13T14:23:15;22.90;53.70
39655;DHT22;25336;59.944;11.010;2023-07-13T14:25:43;22.80;54.00
39655;DHT22;25336;59.944;11.010;2023-07-13T14:28:27;22.60;54.20
39655;DHT22;25336;59.944;11.010;2023-07-13T14:30:54;22.50;55.10
39655;DHT22;25336;59.944;11.010;2023-07-13T14:33:20;22.40;55.40
39655;DHT22;25336;59.944;11.010;2023-07-13T14:35:47;22.30;56.00
39655;DHT22;25336;59.944;11.010;2023-07-13T14:38:16;22.20;56.70
39655;DHT22;25336;59.944;11.010;2023-07-13T14:40:42;22.20;57.00
39655;DHT22;25336;59.944;11.010;2023-07-13T14:43:12;22.10;56.80
39655;DHT22;25336;59.944;11.010;2023-07-13T14:45:41;22.10;56.60
39655;DHT22;25336;59.944;11.010;2023-07-13T14:48:20;22.10;56.20
39655;DHT22;25336;59.944;11.010;2023-07-13T14:50:46;22.00;55.60
39655;DHT22;25336;59.944;11.010;2023-07-13T14:53:13;22.00;55.40
39655;DHT22;25336;59.944;11.010;2023-07-13T14:55:39;22.00;55.30
39655;DHT22;25336;59.944;11.010;2023-07-13T14:58:05;22.00;55.40
39655;DHT22;25336;59.944;11.010;2023-07-13T15:00:31;21.90;55.50
39655;DHT22;25336;59.944;11.010;2023-07-13T15:02:58;21.90;55.50
39655;DHT22;25336;59.944;11.010;2023-07-13T15:05:28;21.50;54.80
39655;DHT22;25336;59.944;11.010;2023-07-13T15:08:00;21.70;54.40
39655;DHT22;25336;59.944;11.010;2023-07-13T15:10:29;21.60;54.50
39655;DHT22;25336;59.944;11.010;2023-07-13T15:13:00;21.50;54.70
39655;DHT22;25336;59.944;11.010;2023-07-13T15:15:28;21.40;55.00
39655;DHT22;25336;59.944;11.010;2023-07-13T15:17:54;21.30;55.00
39655;DHT22;25336;59.944;11.010;2023-07-13T15:20:31;21.20;55.10
39655;DHT22;25336;59.944;11.010;2023-07-13T15:22:58;21.10;55.20
39655;DHT22;25336;59.944;11.010;2023-07-13T15:25:26;21.00;55.30
39655;DHT22;25336;59.944;11.010;2023-07-13T15:27:53;20.80;55.60
39655;DHT22;25336;59.944;11.010;2023-07-13T15:30:19;20.70;55.90
39655;DHT22;25336;59.944;11.010;2023-07-13T15:32:46;20.70;56.20
39655;DHT22;25336;59.944;11.010;2023-07-13T15:35:20;20.50;56.50
39655;DHT22;25336;59.944;11.010;2023-07-13T15:37:47;20.50;57.00
39655;DHT22;25336;59.944;11.010;2023-07-13T15:40:13;20.40;57.00
39655;DHT22;25336;59.944;11.010;2023-07-13T15:42:41;20.30;57.10
39655;DHT22;25336;59.944;11.010;2023-07-13T15:45:23;20.20;57.40
39655;DHT22;25336;59.944;11.010;2023-07-13T15:47:52;20.20;57.70
39655;DHT22;25336;59.944;11.010;2023-07-13T15:50:21;20.10;57.50
39655;DHT22;25336;59.944;11.010;2023-07-13T15:52:53;20.10;57.70
39655;DHT22;25336;59.944;11.010;2023-07-13T15:55:20;20.00;57.70
39655;DHT22;25336;59.944;11.010;2023-07-13T15:57:51;20.00;57.70
39655;DHT22;25336;59.944;11.010;2023-07-13T16:00:26;19.90;57.90
39655;DHT22;25336;59.944;11.010;2023-07-13T16:02:52;19.90;58.20
39655;DHT22;25336;59.944;11.010;2023-07-13T16:05:20;19.80;57.90
39655;DHT22;25336;59.944;11.010;2023-07-13T16:07:48;19.80;57.80
39655;DHT22;25336;59.944;11.010;2023-07-13T16:10:22;19.80;57.80